createdAt,value
2022-08-14T00:01:27.056Z,52.30
2022-08-14T00:03:05.775Z,52.50
2022-08-14T00:04:42.469Z,52.40
2022-08-14T00:06:25.755Z,52.50
2022-08-14T00:08:03.153Z,52.70
2022-08-14T00:10:02.313Z,52.70
2022-08-14T00:11:48.646Z,52.70
2022-08-14T00:13:29.071Z,52.80
2022-08-14T00:15:08.969Z,52.90
2022-08-14T00:16:48.261Z,52.80
2022-08-14T00:18:30.978Z,52.80
2022-08-14T00:20:31.066Z,53.00
2022-08-14T00:22:10.919Z,53.10
2022-08-14T00:24:03.113Z,53.80
2022-08-14T00:25:41.819Z,53.30
2022-08-14T00:27:17.788Z,53.40
2022-08-14T00:28:55.321Z,53.50
2022-08-14T00:30:28.190Z,53.70
2022-08-14T00:32:01.573Z,53.70
2022-08-14T00:33:55.081Z,53.70
2022-08-14T00:36:37.098Z,53.80
2022-08-14T00:37:30.640Z,53.80
2022-08-14T00:39:09.625Z,53.90
2022-08-14T00:40:46.283Z,54.00
2022-08-14T00:42:55.600Z,54.10
2022-08-14T00:44:31.915Z,54.30
2022-08-14T00:46:23.451Z,54.20
2022-08-14T00:48:09.939Z,54.30
2022-08-14T00:49:43.697Z,54.20
2022-08-14T00:51:23.391Z,54.20
2022-08-14T00:53:10.667Z,54.60
2022-08-14T00:54:44.334Z,54.50
2022-08-14T00:56:24.618Z,55.10
2022-08-14T00:58:32.935Z,54.80
2022-08-14T01:00:34.018Z,55.30
2022-08-14T01:02:21.662Z,54.70
2022-08-14T01:04:05.713Z,54.70
2022-08-14T01:05:52.296Z,54.80
2022-08-14T01:07:38.710Z,54.70
2022-08-14T01:09:25.073Z,54.80
2022-08-14T01:11:03.195Z,54.90
2022-08-14T01:12:43.367Z,54.90
2022-08-14T01:14:28.591Z,55.10
2022-08-14T01:16:10.522Z,55.10
2022-08-14T01:18:09.289Z,55.30
2022-08-14T01:20:02.913Z,55.30
2022-08-14T01:21:47.100Z,55.40
2022-08-14T01:23:22.772Z,55.50
2022-08-14T01:24:57.293Z,55.50
2022-08-14T01:26:38.893Z,55.60
2022-08-14T01:28:46.331Z,55.70
2022-08-14T01:30:08.681Z,55.70
2022-08-14T01:31:50.401Z,55.80
2022-08-14T01:33:30.106Z,55.80
2022-08-14T01:35:17.750Z,55.80
2022-08-14T01:36:59.131Z,55.90
2022-08-14T01:38:34.407Z,56.00
2022-08-14T01:40:12.568Z,56.00
2022-08-14T01:41:58.561Z,56.10
2022-08-14T01:43:41.583Z,56.40
2022-08-14T01:45:40.071Z,56.20
2022-08-14T01:47:21.910Z,56.20
2022-08-14T01:48:57.332Z,56.30
2022-08-14T01:50:35.285Z,56.40
2022-08-14T01:52:13.493Z,56.70
2022-08-14T01:54:14.291Z,56.80
2022-08-14T01:55:55.812Z,56.80
2022-08-14T01:57:49.270Z,56.80
2022-08-14T01:59:37.974Z,56.80
2022-08-14T02:01:12.355Z,56.80
2022-08-14T02:02:52.640Z,56.80
2022-08-14T02:04:55.007Z,56.80
2022-08-14T02:06:33.359Z,57.00
2022-08-14T02:08:11.957Z,56.90
2022-08-14T02:09:55.853Z,57.10
2022-08-14T02:11:29.577Z,57.10
2022-08-14T02:13:08.119Z,57.10
2022-08-14T02:14:59.147Z,57.10
2022-08-14T02:16:58.957Z,57.20
2022-08-14T02:18:33.725Z,57.40
2022-08-14T02:20:14.712Z,57.30
2022-08-14T02:21:56.178Z,57.40
2022-08-14T02:23:37.045Z,57.60
2022-08-14T02:25:12.052Z,57.50
2022-08-14T02:28:18.761Z,57.50
2022-08-14T02:28:57.247Z,57.70
2022-08-14T02:30:33.678Z,57.70
2022-08-14T02:32:10.728Z,57.70
2022-08-14T02:34:22.427Z,57.90
2022-08-14T02:36:58.679Z,58.20
2022-08-14T02:37:59.788Z,57.80
2022-08-14T02:39:37.286Z,57.80
2022-08-14T02:41:17.483Z,58.10
2022-08-14T02:42:57.622Z,58.20
2022-08-14T02:44:39.705Z,58.20
2022-08-14T02:46:20.616Z,58.30
2022-08-14T02:48:10.393Z,58.30
2022-08-14T02:50:04.308Z,58.40
2022-08-14T02:51:41.220Z,58.50
2022-08-14T02:53:18.771Z,58.40
2022-08-14T02:54:53.193Z,58.40
2022-08-14T02:57:15.859Z,58.60
2022-08-14T02:58:41.807Z,58.70
2022-08-14T03:00:25.004Z,58.70
2022-08-14T03:02:00.613Z,58.70
2022-08-14T03:03:41.539Z,58.80
2022-08-14T03:05:17.395Z,59.00
2022-08-14T03:07:06.491Z,59.00
2022-08-14T03:08:46.060Z,59.10
2022-08-14T03:10:26.588Z,59.10
2022-08-14T03:12:05.877Z,59.40
2022-08-14T03:13:43.348Z,59.40
2022-08-14T03:15:19.600Z,59.40
2022-08-14T03:16:57.347Z,59.30
2022-08-14T03:18:32.868Z,59.40
2022-08-14T03:20:14.742Z,59.60
2022-08-14T03:21:53.709Z,59.80
2022-08-14T03:23:27.852Z,59.80
2022-08-14T03:25:02.231Z,59.80
2022-08-14T03:26:41.364Z,59.80
2022-08-14T03:28:33.359Z,60.00
2022-08-14T03:30:14.297Z,60.10
2022-08-14T03:31:51.185Z,60.00
2022-08-14T03:33:28.268Z,60.00
2022-08-14T03:35:12.881Z,60.00
2022-08-14T03:37:37.422Z,60.00
2022-08-14T03:39:15.296Z,60.20
2022-08-14T03:40:51.433Z,60.60
2022-08-14T03:42:31.021Z,60.00
2022-08-14T03:45:27.290Z,60.20
2022-08-14T03:46:49.204Z,60.10
2022-08-14T03:48:30.369Z,60.30
2022-08-14T03:50:11.112Z,60.80
2022-08-14T03:51:47.255Z,60.00
2022-08-14T03:53:23.160Z,60.10
2022-08-14T03:54:58.780Z,60.30
2022-08-14T03:56:34.027Z,60.30
2022-08-14T03:58:09.571Z,60.40
2022-08-14T03:59:50.372Z,60.50
2022-08-14T04:01:39.186Z,60.70
2022-08-14T04:03:24.118Z,60.70
2022-08-14T04:05:08.209Z,60.40
2022-08-14T04:06:51.302Z,60.50
2022-08-14T04:08:30.677Z,61.30
2022-08-14T04:10:10.169Z,61.30
2022-08-14T04:11:43.565Z,60.60
2022-08-14T04:13:18.132Z,60.60
2022-08-14T04:14:52.390Z,60.40
2022-08-14T04:16:31.525Z,60.50
2022-08-14T04:18:08.439Z,60.60
2022-08-14T04:19:46.630Z,60.70
2022-08-14T04:21:24.380Z,60.80
2022-08-14T04:22:59.212Z,61.00
2022-08-14T04:24:38.416Z,60.80
2022-08-14T04:26:27.462Z,60.80
2022-08-14T04:29:05.362Z,61.20
2022-08-14T04:30:12.476Z,61.10
2022-08-14T04:33:00.365Z,61.10
2022-08-14T04:33:58.119Z,61.10
2022-08-14T04:35:56.594Z,61.10
2022-08-14T04:37:53.581Z,61.10
2022-08-14T04:39:57.204Z,61.10
2022-08-14T04:42:11.833Z,61.20
2022-08-14T04:43:50.398Z,61.20
2022-08-14T04:45:29.695Z,61.00
2022-08-14T04:47:25.919Z,61.20
2022-08-14T04:49:07.858Z,61.40
2022-08-14T04:50:49.082Z,61.30
2022-08-14T04:52:27.547Z,61.60
2022-08-14T04:54:02.239Z,61.50
2022-08-14T04:55:36.607Z,61.60
2022-08-14T04:57:13.293Z,61.80
2022-08-14T04:58:49.158Z,61.80
2022-08-14T05:00:22.389Z,61.70
2022-08-14T05:01:58.450Z,62.60
2022-08-14T05:03:39.003Z,61.80
2022-08-14T05:05:17.149Z,62.10
2022-08-14T05:06:56.128Z,62.20
2022-08-14T05:08:56.700Z,62.30
2022-08-14T05:10:32.123Z,62.30
2022-08-14T05:13:11.847Z,62.30
2022-08-14T05:14:33.896Z,62.40
2022-08-14T05:16:03.752Z,62.20
2022-08-14T05:17:58.640Z,62.50
2022-08-14T05:19:44.925Z,62.80
2022-08-14T05:22:00.579Z,62.40
2022-08-14T05:23:35.444Z,62.50
2022-08-14T05:25:11.163Z,63.00
2022-08-14T05:26:46.698Z,63.70
2022-08-14T05:28:25.671Z,63.10
2022-08-14T05:30:07.792Z,64.30
2022-08-14T05:31:41.996Z,63.50
2022-08-14T05:33:22.138Z,63.60
2022-08-14T05:34:59.826Z,63.70
2022-08-14T05:36:33.724Z,63.80
2022-08-14T05:38:22.316Z,63.80
2022-08-14T05:40:13.503Z,64.00
2022-08-14T05:41:53.865Z,64.20
2022-08-14T05:43:40.939Z,64.30
2022-08-14T05:45:17.143Z,64.60
2022-08-14T05:46:50.501Z,64.60
2022-08-14T05:48:33.437Z,64.70
2022-08-14T05:50:18.678Z,64.80
2022-08-14T05:51:52.724Z,65.30
2022-08-14T05:53:29.032Z,65.00
2022-08-14T05:55:12.452Z,65.30
2022-08-14T05:56:46.314Z,66.20
2022-08-14T05:58:20.079Z,65.40
2022-08-14T05:59:55.959Z,65.60
2022-08-14T06:01:28.832Z,65.80
2022-08-14T06:03:09.292Z,65.90
2022-08-14T06:04:53.137Z,66.10
2022-08-14T06:06:26.892Z,66.30
2022-08-14T06:08:01.475Z,66.50
2022-08-14T06:09:40.678Z,66.80
2022-08-14T06:11:20.355Z,67.00
2022-08-14T06:13:05.053Z,67.00
2022-08-14T06:14:39.206Z,67.00
2022-08-14T06:16:17.744Z,67.00
2022-08-14T06:17:59.623Z,67.10
2022-08-14T06:19:33.604Z,67.10
2022-08-14T06:21:15.751Z,67.00
2022-08-14T06:22:53.825Z,67.00
2022-08-14T06:24:27.533Z,67.00
2022-08-14T06:26:04.908Z,66.90
2022-08-14T06:27:39.103Z,67.00
2022-08-14T06:29:15.971Z,66.90
2022-08-14T06:30:52.711Z,66.90
2022-08-14T06:32:36.904Z,66.80
2022-08-14T06:35:02.762Z,66.70
2022-08-14T06:36:19.950Z,66.40
2022-08-14T06:37:59.882Z,66.30
2022-08-14T06:39:38.080Z,66.40
2022-08-14T06:41:13.904Z,66.40
2022-08-14T06:43:00.256Z,66.40
2022-08-14T06:44:38.789Z,66.30
2022-08-14T06:46:23.093Z,66.30
2022-08-14T06:48:17.400Z,66.30
2022-08-14T06:49:56.492Z,66.50
2022-08-14T06:51:44.419Z,66.10
2022-08-14T06:53:20.976Z,66.00
2022-08-14T06:54:56.977Z,65.80
2022-08-14T06:56:30.500Z,65.60
2022-08-14T06:58:05.938Z,65.70
2022-08-14T07:00:00.284Z,65.60
2022-08-14T07:01:51.911Z,65.60
2022-08-14T07:03:51.050Z,65.50
2022-08-14T07:05:55.246Z,65.40
2022-08-14T07:07:39.300Z,65.30
2022-08-14T07:09:16.848Z,65.20
2022-08-14T07:11:00.791Z,65.10
2022-08-14T07:13:02.108Z,65.10
2022-08-14T07:14:30.222Z,65.20
2022-08-14T07:16:05.907Z,65.30
2022-08-14T07:17:47.236Z,65.40
2022-08-14T07:19:29.621Z,65.00
2022-08-14T07:21:07.222Z,65.10
2022-08-14T07:22:49.968Z,65.20
2022-08-14T07:24:32.320Z,65.30
2022-08-14T07:26:10.919Z,65.10
2022-08-14T07:27:46.796Z,65.20
2022-08-14T07:29:26.011Z,64.90
2022-08-14T07:31:05.019Z,64.40
2022-08-14T07:32:38.053Z,65.60
2022-08-14T07:34:13.018Z,64.30
2022-08-14T07:36:26.438Z,63.50
2022-08-14T07:38:10.359Z,63.00
2022-08-14T07:39:51.307Z,63.50
2022-08-14T07:41:25.512Z,63.30
2022-08-14T07:43:14.226Z,62.80
2022-08-14T07:44:52.872Z,61.80
2022-08-14T07:46:30.867Z,61.40
2022-08-14T07:48:06.612Z,60.40
2022-08-14T07:49:59.967Z,60.30
2022-08-14T07:51:41.853Z,59.00
2022-08-14T07:53:15.899Z,59.00
2022-08-14T07:54:50.747Z,58.60
2022-08-14T07:56:47.062Z,58.10
2022-08-14T07:58:34.153Z,58.00
2022-08-14T08:00:31.285Z,57.60
2022-08-14T08:02:18.464Z,56.90
2022-08-14T08:03:59.646Z,56.60
2022-08-14T08:05:33.875Z,56.30
2022-08-14T08:07:13.518Z,55.60
2022-08-14T08:09:00.906Z,54.80
2022-08-14T08:11:01.875Z,54.80
2022-08-14T08:12:35.763Z,54.60
2022-08-14T08:14:17.247Z,54.10
2022-08-14T08:15:56.575Z,54.40
2022-08-14T08:17:34.991Z,53.90
2022-08-14T08:19:18.753Z,53.70
2022-08-14T08:20:55.833Z,52.90
2022-08-14T08:22:33.903Z,52.00
2022-08-14T08:24:08.519Z,51.90
2022-08-14T08:25:45.707Z,52.40
2022-08-14T08:27:21.465Z,51.30
2022-08-14T08:28:58.206Z,51.50
2022-08-14T08:30:49.542Z,50.80
2022-08-14T08:32:29.678Z,50.90
2022-08-14T08:34:07.174Z,50.60
2022-08-14T08:35:51.745Z,50.20
2022-08-14T08:37:25.301Z,49.60
2022-08-14T08:39:14.968Z,49.40
2022-08-14T08:41:00.232Z,48.40
2022-08-14T08:42:47.637Z,48.90
2022-08-14T08:44:34.545Z,48.20
2022-08-14T08:46:21.125Z,47.30
2022-08-14T08:47:56.912Z,46.80
2022-08-14T08:49:48.528Z,46.70
2022-08-14T08:51:38.545Z,45.60
2022-08-14T08:53:16.628Z,46.20
2022-08-14T08:54:56.112Z,46.40
2022-08-14T08:56:42.958Z,45.40
2022-08-14T08:58:25.150Z,46.00
2022-08-14T09:00:02.101Z,45.40
2022-08-14T09:01:36.495Z,45.10
2022-08-14T09:03:15.668Z,45.10
2022-08-14T09:04:53.521Z,44.60
2022-08-14T09:07:01.451Z,44.40
2022-08-14T09:08:32.984Z,44.00
2022-08-14T09:10:11.841Z,44.10
2022-08-14T09:11:51.943Z,43.60
2022-08-14T09:13:26.511Z,43.80
2022-08-14T09:15:08.996Z,44.10
2022-08-14T09:16:50.330Z,43.10
2022-08-14T09:18:27.093Z,42.60
2022-08-14T09:20:02.302Z,42.20
2022-08-14T09:21:43.524Z,42.20
2022-08-14T09:23:18.131Z,41.30
2022-08-14T09:25:01.592Z,40.90
2022-08-14T09:26:39.764Z,40.90
2022-08-14T09:28:14.526Z,40.50
2022-08-14T09:29:54.262Z,40.50
2022-08-14T09:31:42.828Z,40.10
2022-08-14T09:33:56.392Z,39.60
2022-08-14T09:35:56.726Z,39.00
2022-08-14T09:37:41.865Z,39.40
2022-08-14T09:39:40.510Z,39.80
2022-08-14T09:42:17.403Z,39.40
2022-08-14T09:43:46.504Z,39.50
2022-08-14T09:45:40.075Z,39.20
2022-08-14T09:47:46.508Z,39.90
2022-08-14T09:49:34.120Z,38.60
2022-08-14T09:51:25.522Z,39.20
2022-08-14T09:53:04.340Z,38.60
2022-08-14T09:54:43.062Z,38.90
2022-08-14T09:56:30.514Z,38.80
2022-08-14T09:58:22.882Z,38.90
2022-08-14T10:00:28.969Z,38.20
2022-08-14T10:02:18.430Z,38.20
2022-08-14T10:03:55.953Z,37.90
2022-08-14T10:05:39.061Z,37.50
2022-08-14T10:07:17.837Z,37.20
2022-08-14T10:08:55.444Z,37.30
2022-08-14T10:10:34.282Z,36.60
2022-08-14T10:12:13.320Z,36.60
2022-08-14T10:14:29.005Z,36.30
2022-08-14T10:16:25.594Z,36.70
2022-08-14T10:18:17.230Z,36.20
2022-08-14T10:19:53.853Z,35.80
2022-08-14T10:21:32.037Z,35.90
2022-08-14T10:23:23.221Z,36.30
2022-08-14T10:24:57.516Z,35.20
2022-08-14T10:26:33.684Z,35.60
2022-08-14T10:28:06.424Z,35.60
2022-08-14T10:30:03.624Z,35.10
2022-08-14T10:31:44.519Z,35.10
2022-08-14T10:33:34.038Z,34.90
2022-08-14T10:35:14.077Z,34.40
2022-08-14T10:36:49.933Z,34.70
2022-08-14T10:38:32.990Z,34.50
2022-08-14T10:40:36.746Z,34.50
2022-08-14T10:42:16.293Z,34.80
2022-08-14T10:44:21.319Z,34.30
2022-08-14T10:46:21.442Z,34.40
2022-08-14T10:48:09.466Z,33.90
2022-08-14T10:50:00.329Z,34.00
2022-08-14T10:51:36.229Z,33.40
2022-08-14T10:53:18.463Z,33.30
2022-08-14T10:55:09.681Z,32.90
2022-08-14T10:56:51.837Z,33.00
2022-08-14T10:58:35.992Z,33.20
2022-08-14T11:00:30.036Z,32.50
2022-08-14T11:02:44.920Z,32.60
2022-08-14T11:04:30.320Z,32.50
2022-08-14T11:06:19.604Z,32.60
2022-08-14T11:08:09.154Z,32.10
2022-08-14T11:09:57.491Z,32.50
2022-08-14T11:11:37.164Z,32.30
2022-08-14T11:13:12.042Z,32.70
2022-08-14T11:14:58.833Z,32.60
2022-08-14T11:16:36.012Z,32.60
2022-08-14T11:18:20.753Z,32.90
2022-08-14T11:20:14.173Z,33.10
2022-08-14T11:21:51.680Z,32.90
2022-08-14T11:23:38.151Z,32.70
2022-08-14T11:25:16.407Z,32.50
2022-08-14T11:26:56.401Z,33.10
2022-08-14T11:28:46.941Z,32.80
2022-08-14T11:30:51.337Z,32.90
2022-08-14T11:32:20.059Z,32.90
2022-08-14T11:33:57.903Z,33.30
2022-08-14T11:35:47.453Z,32.30
2022-08-14T11:37:31.602Z,32.20
2022-08-14T11:39:33.746Z,32.20
2022-08-14T11:41:12.275Z,32.20
2022-08-14T11:42:56.667Z,32.20
2022-08-14T11:44:45.612Z,31.70
2022-08-14T11:46:30.585Z,31.70
2022-08-14T11:49:03.870Z,31.60
2022-08-14T11:50:33.811Z,31.60
2022-08-14T11:52:15.689Z,31.70
2022-08-14T11:54:02.663Z,32.30
2022-08-14T11:55:39.963Z,31.90
2022-08-14T11:57:19.895Z,31.80
2022-08-14T11:58:59.352Z,31.50
2022-08-14T12:00:39.564Z,31.50
2022-08-14T12:02:38.909Z,31.70
2022-08-14T12:04:31.838Z,31.80
2022-08-14T12:06:29.772Z,31.50
2022-08-14T12:08:12.074Z,31.20
2022-08-14T12:09:52.792Z,31.50
2022-08-14T12:11:47.496Z,31.80
2022-08-14T12:13:32.441Z,31.70
2022-08-14T12:15:09.535Z,32.30
2022-08-14T12:16:45.463Z,31.90
2022-08-14T12:18:32.657Z,31.50
2022-08-14T12:20:12.008Z,31.50
2022-08-14T12:21:53.748Z,31.60
2022-08-14T12:23:31.390Z,31.60
2022-08-14T12:25:11.411Z,31.30
2022-08-14T12:26:57.821Z,31.30
2022-08-14T12:28:33.998Z,31.00
2022-08-14T12:30:39.598Z,31.60
2022-08-14T12:32:17.722Z,31.30
2022-08-14T12:34:00.033Z,31.10
2022-08-14T12:35:42.614Z,31.20
2022-08-14T12:37:17.096Z,31.30
2022-08-14T12:38:56.514Z,31.30
2022-08-14T12:40:32.013Z,31.20
2022-08-14T12:42:11.933Z,31.40
2022-08-14T12:44:08.293Z,31.20
2022-08-14T12:45:51.171Z,31.50
2022-08-14T12:47:31.321Z,31.20
2022-08-14T12:49:16.129Z,31.60
2022-08-14T12:50:53.097Z,31.30
2022-08-14T12:52:41.704Z,31.10
2022-08-14T12:54:32.234Z,31.10
2022-08-14T12:56:22.211Z,31.70
2022-08-14T12:58:06.080Z,32.20
2022-08-14T13:00:23.154Z,31.70
2022-08-14T13:02:07.525Z,31.30
2022-08-14T13:03:51.826Z,31.20
2022-08-14T13:05:30.051Z,31.50
2022-08-14T13:07:08.384Z,31.70
2022-08-14T13:08:53.322Z,31.50
2022-08-14T13:10:51.183Z,31.90
2022-08-14T13:12:32.017Z,32.10
2022-08-14T13:14:17.262Z,32.10
2022-08-14T13:15:56.250Z,32.00
2022-08-14T13:17:41.743Z,31.50
2022-08-14T13:19:18.433Z,31.60
2022-08-14T13:20:59.656Z,30.80
2022-08-14T13:22:38.326Z,30.80
2022-08-14T13:24:21.674Z,30.30
2022-08-14T13:25:58.044Z,30.30
2022-08-14T13:27:40.527Z,30.10
2022-08-14T13:29:19.055Z,30.20
2022-08-14T13:30:58.602Z,30.20
2022-08-14T13:32:36.221Z,30.00
2022-08-14T13:34:16.913Z,30.50
2022-08-14T13:35:57.431Z,30.80
2022-08-14T13:37:39.868Z,29.90
2022-08-14T13:39:20.556Z,29.90
2022-08-14T13:40:57.327Z,29.70
2022-08-14T13:42:31.563Z,29.80
2022-08-14T13:44:07.947Z,29.80
2022-08-14T13:46:00.834Z,29.60
2022-08-14T13:47:45.245Z,29.70
2022-08-14T13:49:21.119Z,29.80
2022-08-14T13:51:11.036Z,29.60
2022-08-14T13:52:54.782Z,29.30
2022-08-14T13:54:34.928Z,29.60
2022-08-14T13:56:15.275Z,29.30
2022-08-14T13:58:11.544Z,29.40
2022-08-14T14:00:10.314Z,29.50
2022-08-14T14:01:51.714Z,29.10
2022-08-14T14:03:32.814Z,29.50
2022-08-14T14:05:08.335Z,29.50
2022-08-14T14:06:51.852Z,29.40
2022-08-14T14:08:45.733Z,29.40
2022-08-14T14:10:28.400Z,29.80
2022-08-14T14:12:04.046Z,29.60
2022-08-14T14:13:41.887Z,29.20
2022-08-14T14:15:33.833Z,29.20
2022-08-14T14:17:24.287Z,29.30
2022-08-14T14:19:06.912Z,29.30
2022-08-14T14:20:46.496Z,29.60
2022-08-14T14:22:36.081Z,29.60
2022-08-14T14:24:18.836Z,29.30
2022-08-14T14:25:57.481Z,29.30
2022-08-14T14:27:40.784Z,29.40
2022-08-14T14:29:17.915Z,29.60
2022-08-14T14:31:05.990Z,29.20
2022-08-14T14:32:52.743Z,29.20
2022-08-14T14:34:39.304Z,29.60
2022-08-14T14:36:23.284Z,29.20
2022-08-14T14:38:04.116Z,29.50
2022-08-14T14:40:54.447Z,29.20
2022-08-14T14:41:43.722Z,29.10
2022-08-14T14:43:19.703Z,28.90
2022-08-14T14:45:09.159Z,28.90
2022-08-14T14:46:50.188Z,29.10
2022-08-14T14:48:31.363Z,29.20
2022-08-14T14:50:11.009Z,29.20
2022-08-14T14:51:51.326Z,29.50
2022-08-14T14:53:39.276Z,29.40
2022-08-14T14:55:16.990Z,29.40
2022-08-14T14:56:56.479Z,29.70
2022-08-14T14:58:32.732Z,29.40
2022-08-14T15:00:12.571Z,29.10
2022-08-14T15:01:51.577Z,29.10
2022-08-14T15:03:27.152Z,29.20
2022-08-14T15:05:04.497Z,30.00
2022-08-14T15:06:47.643Z,29.50
2022-08-14T15:08:26.783Z,30.00
2022-08-14T15:10:27.613Z,29.70
2022-08-14T15:12:34.448Z,29.20
2022-08-14T15:14:54.837Z,29.10
2022-08-14T15:15:59.842Z,29.10
2022-08-14T15:17:41.210Z,29.30
2022-08-14T15:19:15.291Z,29.00
2022-08-14T15:20:57.039Z,28.40
2022-08-14T15:22:39.563Z,28.30
2022-08-14T15:24:21.007Z,28.10
2022-08-14T15:26:07.595Z,28.30
2022-08-14T15:27:44.370Z,28.60
2022-08-14T15:29:19.273Z,28.80
2022-08-14T15:30:58.879Z,29.10
2022-08-14T15:32:33.136Z,29.20
2022-08-14T15:34:43.267Z,28.60
2022-08-14T15:36:16.696Z,28.80
2022-08-14T15:38:08.682Z,28.40
2022-08-14T15:39:42.826Z,28.20
2022-08-14T15:41:17.925Z,28.20
2022-08-14T15:42:51.304Z,27.90
2022-08-14T15:44:31.249Z,28.10
2022-08-14T15:46:09.817Z,28.40
2022-08-14T15:48:03.267Z,27.90
2022-08-14T15:49:38.091Z,28.00
2022-08-14T15:51:13.627Z,27.70
2022-08-14T15:52:50.224Z,27.50
2022-08-14T15:54:24.331Z,27.50
2022-08-14T15:56:06.159Z,27.20
2022-08-14T15:58:02.255Z,27.20
2022-08-14T15:59:58.479Z,27.50
2022-08-14T16:01:53.346Z,27.70
2022-08-14T16:03:36.570Z,27.50
2022-08-14T16:05:14.676Z,27.60
2022-08-14T16:06:54.768Z,27.60
2022-08-14T16:08:30.673Z,27.40
2022-08-14T16:10:28.334Z,27.50
2022-08-14T16:11:59.407Z,27.70
2022-08-14T16:13:41.102Z,27.50
2022-08-14T16:15:18.119Z,28.30
2022-08-14T16:16:56.704Z,28.30
2022-08-14T16:18:36.444Z,27.90
2022-08-14T16:20:12.020Z,27.40
2022-08-14T16:21:58.351Z,27.80
2022-08-14T16:23:41.307Z,27.60
2022-08-14T16:25:19.380Z,27.50
2022-08-14T16:26:54.661Z,27.70
2022-08-14T16:28:35.383Z,28.20
2022-08-14T16:30:25.049Z,29.10
2022-08-14T16:32:32.873Z,28.60
2022-08-14T16:33:59.814Z,28.40
2022-08-14T16:35:42.370Z,28.90
2022-08-14T16:37:31.137Z,29.40
2022-08-14T16:39:08.302Z,29.90
2022-08-14T16:40:45.470Z,29.80
2022-08-14T16:42:39.087Z,29.80
2022-08-14T16:44:31.482Z,29.70
2022-08-14T16:46:08.940Z,29.90
2022-08-14T16:47:44.681Z,29.80
2022-08-14T16:49:21.743Z,29.80
2022-08-14T16:50:57.112Z,29.80
2022-08-14T16:52:44.216Z,29.50
2022-08-14T16:54:34.396Z,30.00
2022-08-14T16:56:17.253Z,30.20
2022-08-14T16:57:59.235Z,31.10
2022-08-14T16:59:52.598Z,31.10
2022-08-14T17:01:29.680Z,31.40
2022-08-14T17:03:08.403Z,31.60
2022-08-14T17:04:45.147Z,32.50
2022-08-14T17:06:48.238Z,32.20
2022-08-14T17:08:32.563Z,32.80
2022-08-14T17:10:17.205Z,32.80
2022-08-14T17:12:09.271Z,33.60
2022-08-14T17:14:02.654Z,33.90
2022-08-14T17:15:36.795Z,33.80
2022-08-14T17:17:21.108Z,34.20
2022-08-14T17:19:03.566Z,33.80
2022-08-14T17:21:00.579Z,34.30
2022-08-14T17:22:49.158Z,34.30
2022-08-14T17:24:57.342Z,35.20
2022-08-14T17:26:37.003Z,34.60
2022-08-14T17:28:52.691Z,34.60
2022-08-14T17:30:31.977Z,34.40
2022-08-14T17:32:28.201Z,35.00
2022-08-14T17:34:05.391Z,34.80
2022-08-14T17:35:58.246Z,35.00
2022-08-14T17:37:38.739Z,35.70
2022-08-14T17:39:21.189Z,35.40
2022-08-14T17:41:17.839Z,36.20
2022-08-14T17:43:02.422Z,36.10
2022-08-14T17:44:45.448Z,36.70
2022-08-14T17:46:36.189Z,36.70
2022-08-14T17:49:14.753Z,36.70
2022-08-14T17:50:58.602Z,36.40
2022-08-14T17:52:40.775Z,37.00
2022-08-14T17:54:15.278Z,36.70
2022-08-14T17:56:02.064Z,36.70
2022-08-14T17:57:41.169Z,36.90
2022-08-14T17:59:17.649Z,36.90
2022-08-14T18:00:57.466Z,37.10
2022-08-14T18:02:35.319Z,38.30
2022-08-14T18:04:28.218Z,38.30
2022-08-14T18:06:07.019Z,38.40
2022-08-14T18:07:50.524Z,38.60
2022-08-14T18:09:56.231Z,38.70
2022-08-14T18:11:45.895Z,38.70
2022-08-14T18:13:50.245Z,38.60
2022-08-14T18:15:17.465Z,39.00
2022-08-14T18:16:55.770Z,39.00
2022-08-14T18:18:31.949Z,39.40
2022-08-14T18:20:15.909Z,39.40
2022-08-14T18:22:23.798Z,39.50
2022-08-14T18:24:03.034Z,39.70
2022-08-14T18:25:47.104Z,39.60
2022-08-14T18:27:29.705Z,39.90
2022-08-14T18:29:14.659Z,40.10
2022-08-14T18:30:57.996Z,40.10
2022-08-14T18:32:54.903Z,40.20
2022-08-14T18:34:50.721Z,40.30
2022-08-14T18:36:47.185Z,40.40
2022-08-14T18:38:55.128Z,40.70
2022-08-14T18:40:37.990Z,40.80
2022-08-14T18:42:45.620Z,41.30
2022-08-14T18:45:12.723Z,41.40
2022-08-14T18:47:23.673Z,41.70
2022-08-14T18:49:15.568Z,41.60
2022-08-14T18:50:52.930Z,41.50
2022-08-14T18:52:45.007Z,41.40
2022-08-14T18:54:38.234Z,41.50
2022-08-14T18:56:12.534Z,41.70
2022-08-14T18:58:27.816Z,41.40
2022-08-14T19:00:51.270Z,41.90
2022-08-14T19:02:44.454Z,41.90
2022-08-14T19:04:38.365Z,42.00
2022-08-14T19:06:16.822Z,42.10
2022-08-14T19:08:24.886Z,41.80
2022-08-14T19:10:02.228Z,42.40
2022-08-14T19:11:50.338Z,42.20
2022-08-14T19:13:47.872Z,42.60
2022-08-14T19:15:31.359Z,42.70
2022-08-14T19:17:06.043Z,42.50
2022-08-14T19:18:52.037Z,42.70
2022-08-14T19:20:27.290Z,43.30
2022-08-14T19:22:01.875Z,43.10
2022-08-14T19:24:27.675Z,43.30
2022-08-14T19:26:33.909Z,43.70
2022-08-14T19:28:30.843Z,43.50
2022-08-14T19:30:25.566Z,43.90
2022-08-14T19:32:06.106Z,43.90
2022-08-14T19:33:53.775Z,43.80
2022-08-14T19:35:55.679Z,43.80
2022-08-14T19:37:52.582Z,44.10
2022-08-14T19:39:46.518Z,44.10
2022-08-14T19:41:29.554Z,44.30
2022-08-14T19:43:06.571Z,44.20
2022-08-14T19:44:44.299Z,44.30
2022-08-14T19:46:39.032Z,44.50
2022-08-14T19:48:24.260Z,44.90
2022-08-14T19:50:24.464Z,44.70
2022-08-14T19:51:52.931Z,44.80
2022-08-14T19:53:29.363Z,44.80
2022-08-14T19:55:02.743Z,45.00
2022-08-14T19:56:41.444Z,45.00
2022-08-14T19:58:27.993Z,45.20
2022-08-14T20:00:28.192Z,45.20
2022-08-14T20:02:02.871Z,45.50
2022-08-14T20:04:00.627Z,45.40
2022-08-14T20:05:45.607Z,45.80
2022-08-14T20:07:59.403Z,46.20
2022-08-14T20:11:12.351Z,46.10
2022-08-14T20:12:04.689Z,46.10
2022-08-14T20:13:39.354Z,46.10
2022-08-14T20:15:15.474Z,46.10
2022-08-14T20:17:04.696Z,46.20
2022-08-14T20:18:50.163Z,46.50
2022-08-14T20:20:31.431Z,46.50
2022-08-14T20:22:37.255Z,46.50
2022-08-14T20:24:31.122Z,46.60
2022-08-14T20:26:30.830Z,47.10
2022-08-14T20:28:30.040Z,46.70
2022-08-14T20:30:33.550Z,47.30
2022-08-14T20:32:14.673Z,47.20
2022-08-14T20:34:04.509Z,47.00
2022-08-14T20:35:46.896Z,47.50
2022-08-14T20:37:22.741Z,47.40
2022-08-14T20:38:58.486Z,47.40
2022-08-14T20:40:37.515Z,47.40
2022-08-14T20:42:43.915Z,47.60
2022-08-14T20:44:42.377Z,47.60
2022-08-14T20:46:23.444Z,47.80
2022-08-14T20:48:03.150Z,47.80
2022-08-14T20:49:43.072Z,47.80
2022-08-14T20:51:26.697Z,47.90
2022-08-14T20:53:33.411Z,48.20
2022-08-14T20:55:29.111Z,49.00
2022-08-14T20:57:08.602Z,48.40
2022-08-14T20:58:44.088Z,48.30
2022-08-14T21:00:52.242Z,48.30
2022-08-14T21:02:50.501Z,48.70
2022-08-14T21:04:31.753Z,48.70
2022-08-14T21:06:16.061Z,48.80
2022-08-14T21:07:52.090Z,48.70
2022-08-14T21:10:05.353Z,48.80
2022-08-14T21:11:26.122Z,49.00
2022-08-14T21:13:27.734Z,49.00
2022-08-14T21:14:52.236Z,49.10
2022-08-14T21:16:33.663Z,49.00
2022-08-14T21:18:11.675Z,49.20
2022-08-14T21:19:50.533Z,49.40
2022-08-14T21:21:40.805Z,49.40
2022-08-14T21:23:15.944Z,49.60
2022-08-14T21:24:49.459Z,49.60
2022-08-14T21:26:52.732Z,49.70
2022-08-14T21:28:35.320Z,49.80
2022-08-14T21:30:14.697Z,49.80
2022-08-14T21:31:55.851Z,49.90
2022-08-14T21:33:30.830Z,50.10
2022-08-14T21:35:10.360Z,50.30
2022-08-14T21:36:51.728Z,50.50
2022-08-14T21:38:34.251Z,50.50
2022-08-14T21:40:39.902Z,50.60
2022-08-14T21:42:05.862Z,50.80
2022-08-14T21:43:39.760Z,50.70
2022-08-14T21:45:14.561Z,50.80
2022-08-14T21:46:54.163Z,51.10
2022-08-14T21:48:32.496Z,51.10
2022-08-14T21:50:40.056Z,51.10
2022-08-14T21:52:50.320Z,51.00
2022-08-14T21:54:06.719Z,51.70
2022-08-14T21:56:00.834Z,51.00
2022-08-14T21:57:56.485Z,51.00
2022-08-14T21:59:34.407Z,51.10
2022-08-14T22:01:10.349Z,51.20
2022-08-14T22:02:46.004Z,51.20
2022-08-14T22:04:33.520Z,51.40
2022-08-14T22:06:12.294Z,51.60
2022-08-14T22:07:57.085Z,51.60
2022-08-14T22:09:36.698Z,51.60
2022-08-14T22:11:10.772Z,52.50
2022-08-14T22:13:00.400Z,51.80
2022-08-14T22:14:43.685Z,51.90
2022-08-14T22:17:00.228Z,51.90
2022-08-14T22:18:12.227Z,52.00
2022-08-14T22:19:57.036Z,52.00
2022-08-14T22:21:31.120Z,52.20
2022-08-14T22:23:09.530Z,52.10
2022-08-14T22:24:53.338Z,52.20
2022-08-14T22:26:32.365Z,52.40